createdAt,value
2018-06-05T00:00:24.406Z,18.25
2018-06-05T00:02:52.574Z,18.12
2018-06-05T00:05:20.754Z,18.06
2018-06-05T00:07:48.987Z,18.02
2018-06-05T00:10:17.158Z,17.98
2018-06-05T00:12:45.306Z,17.94
2018-06-05T00:15:13.478Z,17.97
2018-06-05T00:17:41.658Z,18.01
2018-06-05T00:20:09.826Z,18.01
2018-06-05T00:22:37.990Z,18.10
2018-06-05T00:25:06.155Z,18.03
2018-06-05T00:27:34.352Z,17.94
2018-06-05T00:30:02.511Z,17.93
2018-06-05T00:32:30.674Z,17.98
2018-06-05T00:34:58.835Z,18.01
2018-06-05T00:37:27.002Z,17.91
2018-06-05T00:39:55.167Z,17.89
2018-06-05T00:42:23.338Z,17.86
2018-06-05T00:44:51.766Z,17.84
2018-06-05T00:47:19.922Z,17.89
2018-06-05T00:49:48.102Z,17.82
2018-06-05T00:52:16.259Z,17.82
2018-06-05T00:54:44.418Z,17.86
2018-06-05T00:57:12.586Z,17.90
2018-06-05T00:59:40.738Z,17.79
2018-06-05T01:02:08.914Z,17.83
2018-06-05T01:04:37.070Z,17.74
2018-06-05T01:07:05.234Z,17.64
2018-06-05T01:09:33.598Z,17.57
2018-06-05T01:12:01.750Z,17.55
2018-06-05T01:14:29.922Z,17.45
2018-06-05T01:16:58.070Z,17.47
2018-06-05T01:19:26.258Z,17.47
2018-06-05T01:21:54.418Z,17.47
2018-06-05T01:24:22.580Z,17.45
2018-06-05T01:26:50.739Z,17.41
2018-06-05T01:29:18.892Z,17.41
2018-06-05T01:31:47.055Z,17.31
2018-06-05T01:34:15.210Z,17.24
2018-06-05T01:36:43.402Z,17.27
2018-06-05T01:39:11.730Z,17.27
2018-06-05T01:41:39.885Z,17.29
2018-06-05T01:44:08.039Z,17.38
2018-06-05T01:46:36.190Z,17.46
2018-06-05T01:49:04.354Z,17.47
2018-06-05T01:51:32.520Z,17.49
2018-06-05T01:54:00.671Z,17.60
2018-06-05T01:56:28.834Z,17.59
2018-06-05T01:58:56.998Z,17.58
2018-06-05T02:01:25.154Z,17.57
2018-06-05T02:03:53.311Z,17.69
2018-06-05T02:06:21.475Z,17.76
2018-06-05T02:08:49.630Z,17.68
2018-06-05T02:11:17.798Z,17.76
2018-06-05T02:13:45.946Z,17.72
2018-06-05T02:16:14.107Z,17.66
2018-06-05T02:18:42.262Z,17.77
2018-06-05T02:21:10.434Z,17.83
2018-06-05T02:23:38.590Z,17.88
2018-06-05T02:26:06.766Z,17.87
2018-06-05T02:28:34.927Z,17.85
2018-06-05T02:31:03.078Z,17.88
2018-06-05T02:33:31.242Z,17.89
2018-06-05T02:35:59.399Z,17.88
2018-06-05T02:38:27.565Z,17.82
2018-06-05T02:40:55.728Z,17.80
2018-06-05T02:43:23.883Z,17.81
2018-06-05T02:45:52.039Z,17.82
2018-06-05T02:48:20.203Z,17.75
2018-06-05T02:50:48.371Z,17.77
2018-06-05T02:53:16.743Z,17.71
2018-06-05T02:55:44.899Z,17.69
2018-06-05T02:58:13.060Z,17.64
2018-06-05T03:00:41.237Z,17.71
2018-06-05T03:03:09.386Z,17.71
2018-06-05T03:05:37.558Z,17.76
2018-06-05T03:08:05.723Z,17.74
2018-06-05T03:10:33.894Z,17.77
2018-06-05T03:13:02.050Z,17.76
2018-06-05T03:15:30.230Z,17.82
2018-06-05T03:17:58.394Z,17.82
2018-06-05T03:20:27.344Z,17.93
2018-06-05T03:22:55.466Z,17.90
2018-06-05T03:25:23.624Z,17.81
2018-06-05T03:27:51.790Z,17.83
2018-06-05T03:30:19.950Z,17.88
2018-06-05T03:32:48.119Z,17.71
2018-06-05T03:35:16.283Z,17.61
2018-06-05T03:37:44.463Z,17.62
2018-06-05T03:40:12.622Z,17.65
2018-06-05T03:42:40.822Z,17.66
2018-06-05T03:45:08.954Z,17.79
2018-06-05T03:47:37.102Z,17.86
2018-06-05T03:50:05.266Z,17.85
2018-06-05T03:52:33.434Z,17.76
2018-06-05T03:55:01.608Z,17.83
2018-06-05T03:57:29.766Z,17.86
2018-06-05T03:59:57.930Z,17.85
2018-06-05T04:02:26.090Z,17.97
2018-06-05T04:04:54.262Z,17.97
2018-06-05T04:07:28.646Z,18.04
2018-06-05T04:09:56.814Z,17.93
2018-06-05T04:12:24.965Z,17.86
2018-06-05T04:14:53.127Z,17.81
2018-06-05T04:17:21.286Z,17.74
2018-06-05T04:19:49.518Z,17.63
2018-06-05T04:22:17.702Z,17.75
2018-06-05T04:24:45.894Z,17.82
2018-06-05T04:27:14.074Z,17.88
2018-06-05T04:29:42.238Z,17.87
2018-06-05T04:32:10.415Z,17.73
2018-06-05T04:34:38.574Z,17.85
2018-06-05T04:37:06.971Z,17.85
2018-06-05T04:39:35.217Z,17.88
2018-06-05T04:42:03.387Z,17.92
2018-06-05T04:44:31.542Z,17.99
2018-06-05T04:46:59.702Z,18.15
2018-06-05T04:49:27.864Z,18.23
2018-06-05T04:51:56.046Z,18.20
2018-06-05T04:54:24.223Z,18.16
2018-06-05T04:56:52.382Z,18.34
2018-06-05T04:59:20.558Z,18.41
2018-06-05T05:01:48.734Z,18.47
2018-06-05T05:04:16.889Z,18.29
2018-06-05T05:06:45.058Z,18.39
2018-06-05T05:09:13.401Z,18.39
2018-06-05T05:11:41.570Z,18.35
2018-06-05T05:14:09.734Z,18.32
2018-06-05T05:16:37.921Z,18.45
2018-06-05T05:19:06.158Z,18.48
2018-06-05T05:21:34.324Z,18.60
2018-06-05T05:24:02.487Z,18.67
2018-06-05T05:26:30.667Z,18.69
2018-06-05T05:28:58.826Z,18.62
2018-06-05T05:31:26.989Z,18.72
2018-06-05T05:33:55.142Z,18.64
2018-06-05T05:36:23.314Z,18.68
2018-06-05T05:38:51.494Z,18.73
2018-06-05T05:41:19.678Z,18.71
2018-06-05T05:43:47.846Z,18.82
2018-06-05T05:46:15.999Z,19.00
2018-06-05T05:48:44.182Z,19.05
2018-06-05T05:51:12.330Z,18.92
2018-06-05T05:53:40.534Z,18.87
2018-06-05T05:56:08.683Z,18.96
2018-06-05T05:58:36.842Z,18.95
2018-06-05T06:01:05.030Z,19.02
2018-06-05T06:03:33.198Z,19.15
2018-06-05T06:06:01.362Z,19.44
2018-06-05T06:08:29.514Z,19.52
2018-06-05T06:10:57.761Z,19.41
2018-06-05T06:13:25.842Z,19.63
2018-06-05T06:15:54.004Z,19.67
2018-06-05T06:18:22.163Z,19.42
2018-06-05T06:20:50.314Z,19.38
2018-06-05T06:23:18.470Z,19.47
2018-06-05T06:25:46.630Z,19.54
2018-06-05T06:28:14.799Z,19.64
2018-06-05T06:30:42.947Z,19.86
2018-06-05T06:33:11.100Z,20.00
2018-06-05T06:35:39.246Z,19.89
2018-06-05T06:38:07.414Z,19.85
2018-06-05T06:40:35.570Z,19.56
2018-06-05T06:43:03.738Z,19.63
2018-06-05T06:45:31.882Z,19.77
2018-06-05T06:48:00.026Z,19.94
2018-06-05T06:50:28.922Z,20.01
2018-06-05T06:52:57.074Z,20.00
2018-06-05T06:55:25.227Z,20.34
2018-06-05T06:57:53.379Z,20.59
2018-06-05T07:00:21.526Z,20.80
2018-06-05T07:02:49.678Z,20.59
2018-06-05T07:05:17.850Z,20.40
2018-06-05T07:07:46.001Z,20.45
2018-06-05T07:10:14.166Z,20.47
2018-06-05T07:12:42.323Z,20.72
2018-06-05T07:15:10.466Z,20.74
2018-06-05T07:17:38.626Z,20.64
2018-06-05T07:20:06.779Z,20.81
2018-06-05T07:22:34.952Z,20.79
2018-06-05T07:25:03.090Z,20.50
2018-06-05T07:27:31.246Z,20.42
2018-06-05T07:29:59.830Z,20.64
2018-06-05T07:32:27.990Z,20.81
2018-06-05T07:34:56.143Z,20.63
2018-06-05T07:37:24.315Z,20.80
2018-06-05T07:39:52.524Z,20.87
2018-06-05T07:42:20.700Z,20.98
2018-06-05T07:44:48.851Z,21.16
2018-06-05T07:47:17.014Z,21.26
2018-06-05T07:49:45.172Z,21.01
2018-06-05T07:52:13.329Z,21.09
2018-06-05T07:54:41.482Z,21.24
2018-06-05T07:57:09.293Z,21.01
2018-06-05T07:59:37.450Z,20.98
2018-06-05T08:02:05.614Z,21.37
2018-06-05T08:04:33.794Z,21.48
2018-06-05T08:07:02.078Z,21.32
2018-06-05T08:09:30.230Z,21.24
2018-06-05T08:11:58.387Z,21.34
2018-06-05T08:14:26.538Z,21.37
2018-06-05T08:16:54.715Z,21.44
2018-06-05T08:19:22.866Z,21.19
2018-06-05T08:21:51.031Z,21.20
2018-06-05T08:24:19.187Z,21.38
2018-06-05T08:26:52.075Z,21.50
2018-06-05T08:29:20.767Z,21.45
2018-06-05T08:31:48.974Z,21.51
2018-06-05T08:34:17.132Z,21.33
2018-06-05T08:36:45.291Z,21.19
2018-06-05T08:39:13.463Z,21.49
2018-06-05T08:41:41.683Z,21.55
2018-06-05T08:44:09.850Z,21.69
2018-06-05T08:46:38.018Z,21.81
2018-06-05T08:49:06.214Z,21.70
2018-06-05T08:51:34.378Z,21.64
2018-06-05T08:54:02.548Z,21.86
2018-06-05T08:56:30.703Z,21.67
2018-06-05T08:58:58.878Z,21.74
2018-06-05T09:01:27.050Z,22.08
2018-06-05T09:03:55.214Z,22.35
2018-06-05T09:06:23.370Z,22.15
2018-06-05T09:08:51.534Z,22.05
2018-06-05T09:11:19.718Z,21.89
2018-06-05T09:13:47.890Z,22.08
2018-06-05T09:16:16.054Z,22.39
2018-06-05T09:18:44.202Z,22.76
2018-06-05T09:21:12.375Z,22.24
2018-06-05T09:23:40.715Z,22.30
2018-06-05T09:26:08.886Z,22.28
2018-06-05T09:28:37.066Z,22.47
2018-06-05T09:31:05.238Z,22.83
2018-06-05T09:33:33.410Z,23.21
2018-06-05T09:36:01.582Z,23.43
2018-06-05T09:38:29.744Z,23.27
2018-06-05T09:40:57.911Z,23.39
2018-06-05T09:43:26.066Z,23.67
2018-06-05T09:45:54.226Z,23.50
2018-06-05T09:48:22.381Z,23.43
2018-06-05T09:50:50.561Z,23.70
2018-06-05T09:53:18.730Z,24.11
2018-06-05T09:55:46.903Z,24.14
2018-06-05T09:58:15.241Z,24.70
2018-06-05T10:00:48.626Z,25.16
2018-06-05T10:03:16.782Z,25.32
2018-06-05T10:05:44.959Z,24.45
2018-06-05T10:08:13.111Z,24.06
2018-06-05T10:10:41.294Z,23.77
2018-06-05T10:13:09.447Z,24.22
2018-06-05T10:15:37.606Z,24.37
2018-06-05T10:18:05.950Z,24.51
2018-06-05T10:20:34.135Z,24.90
2018-06-05T10:23:02.318Z,25.57
2018-06-05T10:25:30.498Z,25.73
2018-06-05T10:27:58.662Z,26.28
2018-06-05T10:30:26.887Z,26.98
2018-06-05T10:32:55.057Z,26.17
2018-06-05T10:35:23.222Z,25.85
2018-06-05T10:37:51.406Z,26.03
2018-06-05T10:40:19.571Z,26.39
2018-06-05T10:42:47.755Z,26.23
2018-06-05T10:45:15.918Z,26.41
2018-06-05T10:47:44.094Z,26.38
2018-06-05T10:50:12.270Z,26.64
2018-06-05T10:52:40.464Z,26.62
2018-06-05T10:55:08.631Z,25.48
2018-06-05T10:57:36.970Z,25.68
2018-06-05T11:00:05.239Z,26.08
2018-06-05T11:02:33.435Z,26.89
2018-06-05T11:05:01.582Z,26.98
2018-06-05T11:07:29.750Z,26.96
2018-06-05T11:09:57.922Z,27.45
2018-06-05T11:12:26.089Z,26.75
2018-06-05T11:14:54.239Z,26.99
2018-06-05T11:17:22.382Z,26.66
2018-06-05T11:19:50.610Z,25.81
2018-06-05T11:22:18.750Z,25.61
2018-06-05T11:24:46.951Z,25.80
2018-06-05T11:27:15.090Z,26.10
2018-06-05T11:29:43.258Z,25.97
2018-06-05T11:32:11.481Z,25.96
2018-06-05T11:34:39.622Z,26.12
2018-06-05T11:37:07.848Z,26.71
2018-06-05T11:39:36.043Z,26.46
2018-06-05T11:42:04.210Z,26.10
2018-06-05T11:44:32.462Z,26.31
2018-06-05T11:47:00.667Z,26.04
2018-06-05T11:49:28.821Z,25.53
2018-06-05T11:51:56.990Z,24.94
2018-06-05T11:54:25.159Z,25.17
2018-06-05T11:56:53.323Z,25.02
2018-06-05T11:59:21.491Z,24.69
2018-06-05T12:01:49.661Z,25.07
2018-06-05T12:04:17.833Z,24.88
2018-06-05T12:06:46.045Z,25.32
2018-06-05T12:09:14.208Z,25.44
2018-06-05T12:11:42.409Z,25.74
2018-06-05T12:14:10.577Z,25.54
2018-06-05T12:16:38.757Z,25.94
2018-06-05T12:19:06.922Z,25.89
2018-06-05T12:21:35.087Z,25.75
2018-06-05T12:24:03.246Z,25.96
2018-06-05T12:26:31.407Z,26.20
2018-06-05T12:28:59.563Z,26.14
2018-06-05T12:31:27.734Z,25.31
2018-06-05T12:33:55.942Z,24.87
2018-06-05T12:36:24.243Z,24.77
2018-06-05T12:38:52.579Z,24.93
2018-06-05T12:41:20.802Z,25.05
2018-06-05T12:43:48.962Z,25.19
2018-06-05T12:46:17.142Z,25.33
2018-06-05T12:48:45.342Z,25.29
2018-06-05T12:51:13.535Z,25.43
2018-06-05T12:53:41.902Z,25.39
2018-06-05T12:56:10.318Z,25.29
2018-06-05T12:58:38.495Z,24.97
2018-06-05T13:01:06.728Z,25.19
2018-06-05T13:03:34.898Z,25.14
2018-06-05T13:06:03.180Z,25.58
2018-06-05T13:08:31.411Z,25.34
2018-06-05T13:10:59.847Z,25.50
2018-06-05T13:13:28.079Z,25.61
2018-06-05T13:15:56.362Z,25.19
2018-06-05T13:18:24.590Z,24.99
2018-06-05T13:20:52.774Z,24.59
2018-06-05T13:23:20.922Z,24.94
2018-06-05T13:25:49.180Z,24.88
2018-06-05T13:28:17.362Z,25.13
2018-06-05T13:30:45.850Z,25.10
2018-06-05T13:33:14.102Z,25.28
2018-06-05T13:35:43.625Z,25.58
2018-06-05T13:38:11.817Z,25.72
2018-06-05T13:40:39.994Z,25.58
2018-06-05T13:43:08.296Z,25.27
2018-06-05T13:45:36.442Z,25.40
2018-06-05T13:48:04.647Z,25.54
2018-06-05T13:50:32.919Z,25.32
2018-06-05T13:53:01.211Z,25.48
2018-06-05T13:55:29.392Z,25.77
2018-06-05T13:57:57.592Z,25.66
2018-06-05T14:00:25.806Z,25.67
2018-06-05T14:02:53.995Z,25.27
2018-06-05T14:05:22.166Z,25.35
2018-06-05T14:07:50.332Z,25.12
2018-06-05T14:10:18.515Z,25.08
2018-06-05T14:12:46.707Z,25.35
2018-06-05T14:15:14.946Z,25.51
2018-06-05T14:17:43.115Z,25.36
2018-06-05T14:20:11.323Z,25.35
2018-06-05T14:22:39.484Z,25.55
2018-06-05T14:25:07.698Z,25.65
2018-06-05T14:27:35.870Z,25.74
2018-06-05T14:30:04.470Z,25.22
2018-06-05T14:32:32.656Z,25.20
2018-06-05T14:35:00.839Z,24.90
2018-06-05T14:37:29.063Z,24.64
2018-06-05T14:39:57.311Z,24.38
2018-06-05T14:42:25.526Z,24.34
2018-06-05T14:44:53.772Z,24.27
2018-06-05T14:47:21.946Z,24.26
2018-06-05T14:49:50.102Z,24.61
2018-06-05T14:52:18.321Z,24.77
2018-06-05T14:54:46.511Z,24.46
2018-06-05T14:57:14.670Z,24.25
2018-06-05T14:59:42.843Z,24.24
2018-06-05T15:02:11.040Z,24.24
2018-06-05T15:04:39.189Z,24.25
2018-06-05T15:07:07.334Z,24.16
2018-06-05T15:09:35.518Z,24.03
2018-06-05T15:12:04.163Z,24.10
2018-06-05T15:14:32.323Z,24.23
2018-06-05T15:17:00.480Z,24.27
2018-06-05T15:19:28.658Z,24.16
2018-06-05T15:24:47.270Z,24.19
2018-06-05T15:27:15.502Z,24.13
2018-06-05T15:29:43.659Z,24.13
2018-06-05T15:32:11.810Z,24.14
2018-06-05T15:34:39.983Z,24.07
2018-06-05T15:37:08.275Z,24.03
2018-06-05T15:39:36.830Z,24.02
2018-06-05T15:42:05.145Z,23.97
2018-06-05T15:44:33.338Z,24.00
2018-06-05T15:47:01.535Z,24.10
2018-06-05T15:49:29.765Z,24.22
2018-06-05T15:51:57.949Z,24.32
2018-06-05T15:54:26.146Z,23.94
2018-06-05T15:56:54.618Z,23.97
2018-06-05T15:59:22.803Z,23.96
2018-06-05T16:01:50.987Z,23.71
2018-06-05T16:04:19.183Z,23.77
2018-06-05T16:06:47.347Z,23.60
2018-06-05T16:09:15.512Z,23.55
2018-06-05T16:11:43.726Z,23.53
2018-06-05T16:14:11.878Z,23.46
2018-06-05T16:16:40.047Z,23.44
2018-06-05T16:19:08.233Z,23.44
2018-06-05T16:21:38.057Z,23.53
2018-06-05T16:24:06.386Z,23.56
2018-06-05T16:26:34.538Z,23.52
2018-06-05T16:29:02.727Z,23.46
2018-06-05T16:31:30.898Z,23.44
2018-06-05T16:33:59.054Z,23.51
2018-06-05T16:36:27.270Z,23.39
2018-06-05T16:38:55.426Z,23.26
2018-06-05T16:41:23.606Z,23.18
2018-06-05T16:43:51.762Z,23.11
2018-06-05T16:46:19.926Z,23.24
2018-06-05T16:48:48.106Z,23.24
2018-06-05T16:51:16.259Z,23.33
2018-06-05T16:53:44.431Z,23.38
2018-06-05T16:56:12.618Z,23.35
2018-06-05T16:58:40.811Z,23.34
2018-06-05T17:01:09.284Z,23.39
2018-06-05T17:03:37.479Z,23.36
2018-06-05T17:06:05.658Z,23.31
2018-06-05T17:08:33.847Z,23.37
2018-06-05T17:11:02.330Z,23.37
2018-06-05T17:13:30.540Z,23.38
2018-06-05T17:15:58.811Z,23.41
2018-06-05T17:18:27.158Z,23.29
2018-06-05T17:20:55.490Z,23.05
2018-06-05T17:23:24.015Z,22.99
2018-06-05T17:25:52.254Z,23.00
2018-06-05T17:28:20.579Z,22.96
2018-06-05T17:30:48.857Z,22.88
2018-06-05T17:33:18.043Z,22.88
2018-06-05T17:35:46.194Z,22.91
2018-06-05T17:38:14.398Z,22.86
2018-06-05T17:40:42.624Z,22.86
2018-06-05T17:43:10.863Z,22.91
2018-06-05T17:45:39.118Z,23.05
2018-06-05T17:48:07.337Z,22.93
2018-06-05T17:50:35.712Z,22.93
2018-06-05T17:53:03.925Z,22.96
2018-06-05T17:55:32.162Z,22.81
2018-06-05T17:58:00.358Z,22.71
2018-06-05T18:00:28.782Z,22.72
2018-06-05T18:02:56.942Z,22.74
2018-06-05T18:05:25.180Z,22.60
2018-06-05T18:07:53.422Z,22.62
2018-06-05T18:10:21.681Z,22.57
2018-06-05T18:12:49.834Z,22.69
2018-06-05T18:15:18.223Z,22.60
2018-06-05T18:17:46.527Z,22.58
2018-06-05T18:20:14.706Z,22.45
2018-06-05T18:22:42.970Z,22.49
2018-06-05T18:25:11.166Z,22.37
2018-06-05T18:27:39.346Z,22.32
2018-06-05T18:30:07.687Z,22.24
2018-06-05T18:32:35.880Z,22.24
2018-06-05T18:35:04.124Z,22.33
2018-06-05T18:37:32.326Z,22.24
2018-06-05T18:40:00.489Z,22.24
2018-06-05T18:42:28.648Z,22.15
2018-06-05T18:44:56.895Z,22.09
2018-06-05T18:47:25.050Z,21.99
2018-06-05T18:49:53.225Z,21.88
2018-06-05T18:52:21.378Z,21.89
2018-06-05T18:54:49.522Z,21.80
2018-06-05T18:57:17.769Z,21.78
2018-06-05T18:59:46.034Z,21.54
2018-06-05T19:02:14.458Z,21.39
2018-06-05T19:04:42.698Z,21.45
2018-06-05T19:07:10.883Z,21.46
2018-06-05T19:09:45.535Z,21.30
2018-06-05T19:12:13.953Z,21.20
2018-06-05T19:14:42.485Z,21.11
2018-06-05T19:17:10.771Z,21.03
2018-06-05T19:19:39.039Z,20.86
2018-06-05T19:22:07.327Z,20.83
2018-06-05T19:24:35.610Z,20.75
2018-06-05T19:27:03.811Z,20.65
2018-06-05T19:29:32.154Z,20.69
2018-06-05T19:32:00.320Z,20.70
2018-06-05T19:34:29.329Z,20.73
2018-06-05T19:36:57.486Z,20.61
2018-06-05T19:39:25.646Z,20.42
2018-06-05T19:41:53.802Z,20.37
2018-06-05T19:44:21.950Z,20.39
2018-06-05T19:46:50.114Z,20.36
2018-06-05T19:49:18.279Z,20.34
2018-06-05T19:51:46.511Z,20.33
2018-06-05T19:54:14.664Z,20.27
2018-06-05T19:56:42.826Z,20.27
2018-06-05T19:59:11.187Z,20.15
2018-06-05T20:01:39.338Z,20.14
2018-06-05T20:04:07.498Z,19.93
2018-06-05T20:06:35.642Z,19.89
2018-06-05T20:09:04.231Z,19.88
2018-06-05T20:11:32.382Z,19.80
2018-06-05T20:14:00.682Z,19.70
2018-06-05T20:16:28.846Z,19.71
2018-06-05T20:18:57.002Z,19.65
2018-06-05T20:21:25.338Z,19.63
2018-06-05T20:23:53.507Z,19.51
2018-06-05T20:26:21.648Z,19.50
2018-06-05T20:28:49.802Z,19.47
2018-06-05T20:31:17.970Z,19.55
2018-06-05T20:33:46.118Z,19.50
2018-06-05T20:36:14.282Z,19.51
2018-06-05T20:38:42.456Z,19.42
2018-06-05T20:41:10.618Z,19.46
2018-06-05T20:43:38.762Z,19.40
2018-06-05T20:46:06.935Z,19.38
2018-06-05T20:48:35.106Z,19.40
2018-06-05T20:51:03.279Z,19.42
2018-06-05T20:53:31.459Z,19.44
2018-06-05T20:55:59.614Z,19.37
2018-06-05T20:58:27.763Z,19.22
2018-06-05T21:00:55.934Z,19.20
2018-06-05T21:03:24.094Z,19.07
2018-06-05T21:05:52.279Z,19.08
2018-06-05T21:08:20.430Z,19.09
2018-06-05T21:10:48.591Z,19.01
2018-06-05T21:13:16.739Z,19.08
2018-06-05T21:15:44.890Z,19.09
2018-06-05T21:18:13.078Z,19.12
2018-06-05T21:20:41.226Z,19.05
2018-06-05T21:23:09.375Z,19.09
2018-06-05T21:25:37.522Z,19.05
2018-06-05T21:28:05.859Z,18.95
2018-06-05T21:30:34.470Z,18.98
2018-06-05T21:33:02.606Z,18.93
2018-06-05T21:35:30.757Z,18.91
2018-06-05T21:37:59.022Z,18.89
2018-06-05T21:40:27.665Z,18.92
2018-06-05T21:42:55.894Z,18.79
2018-06-05T21:45:24.046Z,18.73
2018-06-05T21:47:52.186Z,18.74
2018-06-05T21:50:20.335Z,18.69
2018-06-05T21:52:48.475Z,18.72
2018-06-05T21:55:16.628Z,18.79
2018-06-05T21:57:44.774Z,18.74
2018-06-05T22:00:12.938Z,18.80
2018-06-05T22:02:41.090Z,18.79
2018-06-05T22:05:09.254Z,18.73
2018-06-05T22:07:37.415Z,18.60
2018-06-05T22:10:05.566Z,18.66
2018-06-05T22:12:33.743Z,18.57
2018-06-05T22:15:01.887Z,18.59
2018-06-05T22:17:30.052Z,18.58
2018-06-05T22:19:58.313Z,18.55
2018-06-05T22:22:26.470Z,18.57
2018-06-05T22:24:54.622Z,18.53
2018-06-05T22:27:22.770Z,18.52
2018-06-05T22:29:50.942Z,18.49
2018-06-05T22:32:19.105Z,18.34
2018-06-05T22:34:47.274Z,18.40
2018-06-05T22:37:15.442Z,18.39
2018-06-05T22:39:43.615Z,18.29
2018-06-05T22:42:11.790Z,18.26
2018-06-05T22:44:39.982Z,18.31
2018-06-05T22:47:08.134Z,18.30
2018-06-05T22:49:36.314Z,18.35
2018-06-05T22:52:04.482Z,18.34
2018-06-05T22:54:32.639Z,18.33
2018-06-05T22:57:00.814Z,18.29
2018-06-05T22:59:28.988Z,18.21
2018-06-05T23:01:57.158Z,18.25
2018-06-05T23:04:25.320Z,18.21
2018-06-05T23:06:53.466Z,18.22
2018-06-05T23:09:21.634Z,18.16
2018-06-05T23:11:49.844Z,18.16
2018-06-05T23:14:18.010Z,18.15
2018-06-05T23:16:46.174Z,18.12
2018-06-05T23:19:14.337Z,18.08
2018-06-05T23:21:42.495Z,18.02
2018-06-05T23:24:10.650Z,18.00
2018-06-05T23:26:39.176Z,17.94
2018-06-05T23:29:07.326Z,17.90
2018-06-05T23:31:35.482Z,17.90
2018-06-05T23:34:03.650Z,17.86
2018-06-05T23:36:31.808Z,17.82
2018-06-05T23:38:59.969Z,17.80
2018-06-05T23:41:28.134Z,17.75
2018-06-05T23:43:56.302Z,17.73
2018-06-05T23:46:24.459Z,17.71
2018-06-05T23:48:52.618Z,17.68
2018-06-05T23:51:20.779Z,17.67
2018-06-05T23:53:48.930Z,17.61
2018-06-05T23:56:17.106Z,17.61
2018-06-05T23:58:45.262Z,17.60
